createdAt,value
2022-10-08T00:01:21.412Z,9.07
2022-10-08T00:03:53.489Z,8.43
2022-10-08T00:06:26.846Z,9.10
2022-10-08T00:11:25.411Z,8.25
2022-10-08T00:13:54.339Z,7.50
2022-10-08T00:16:24.943Z,6.97
2022-10-08T00:18:54.837Z,7.03
2022-10-08T00:21:23.804Z,6.57
2022-10-08T00:23:53.253Z,7.00
2022-10-08T00:26:24.491Z,6.30
2022-10-08T00:28:54.181Z,11.18
2022-10-08T00:31:28.081Z,6.70
2022-10-08T00:33:57.677Z,6.88
2022-10-08T00:36:27.185Z,6.65
2022-10-08T00:39:07.234Z,6.63
2022-10-08T00:41:37.461Z,6.45
2022-10-08T00:44:43.030Z,7.50
2022-10-08T00:47:31.487Z,7.75
2022-10-08T00:50:22.593Z,7.93
2022-10-08T00:53:01.477Z,6.63
2022-10-08T00:55:30.063Z,6.68
2022-10-08T00:58:01.358Z,7.57
2022-10-08T01:00:29.470Z,6.70
2022-10-08T01:02:56.854Z,6.38
2022-10-08T01:05:49.287Z,6.07
2022-10-08T01:08:35.196Z,5.90
2022-10-08T01:11:55.013Z,5.55
2022-10-08T01:14:57.035Z,6.07
2022-10-08T01:17:37.953Z,6.25
2022-10-08T01:20:51.353Z,6.40
2022-10-08T01:24:09.285Z,6.57
2022-10-08T01:26:51.363Z,6.00
2022-10-08T01:29:37.632Z,6.65
2022-10-08T01:32:09.111Z,5.80
2022-10-08T01:34:49.659Z,5.70
2022-10-08T01:37:41.450Z,6.70
2022-10-08T01:40:15.308Z,6.13
2022-10-08T01:43:00.106Z,6.43
2022-10-08T01:45:33.664Z,5.78
2022-10-08T01:50:38.034Z,5.63
2022-10-08T01:55:37.790Z,5.45
2022-10-08T01:58:09.812Z,5.90
2022-10-08T02:00:41.558Z,5.72
2022-10-08T02:03:14.005Z,6.72
2022-10-08T02:05:48.930Z,6.03
2022-10-08T02:08:16.572Z,5.80
2022-10-08T02:10:45.438Z,6.75
2022-10-08T02:13:14.521Z,5.90
2022-10-08T02:16:05.728Z,5.50
2022-10-08T02:18:42.211Z,6.50
2022-10-08T02:21:28.405Z,6.18
2022-10-08T02:23:58.462Z,5.80
2022-10-08T02:26:35.227Z,5.43
2022-10-08T02:29:25.244Z,6.57
2022-10-08T02:32:01.731Z,5.95
2022-10-08T02:35:07.530Z,5.70
2022-10-08T02:37:42.730Z,5.25
2022-10-08T02:40:13.750Z,6.25
2022-10-08T02:42:47.107Z,5.45
2022-10-08T02:47:47.997Z,5.55
2022-10-08T02:50:21.098Z,5.97
2022-10-08T02:52:51.350Z,5.82
2022-10-08T02:55:48.865Z,5.88
2022-10-08T02:58:17.020Z,5.40
2022-10-08T03:00:57.682Z,4.88
2022-10-08T03:03:38.545Z,5.22
2022-10-08T03:06:10.023Z,5.25
2022-10-08T03:08:43.508Z,5.00
2022-10-08T03:13:42.743Z,4.47
2022-10-08T03:16:16.360Z,4.75
2022-10-08T03:21:14.593Z,5.07
2022-10-08T03:23:42.505Z,4.93
2022-10-08T03:26:09.805Z,5.10
2022-10-08T03:28:37.658Z,4.32
2022-10-08T03:31:08.454Z,4.50
2022-10-08T03:33:36.117Z,5.03
2022-10-08T03:36:04.371Z,4.85
2022-10-08T03:38:34.167Z,4.72
2022-10-08T03:41:01.928Z,4.80
2022-10-08T03:43:35.988Z,4.88
2022-10-08T03:46:04.299Z,5.30
2022-10-08T03:48:31.997Z,5.55
2022-10-08T03:51:05.007Z,5.53
2022-10-08T03:53:43.489Z,5.25
2022-10-08T03:56:17.583Z,5.93
2022-10-08T03:58:46.380Z,5.88
2022-10-08T04:01:17.624Z,4.97
2022-10-08T04:03:48.313Z,5.68
2022-10-08T04:06:19.510Z,5.68
2022-10-08T04:08:46.751Z,5.03
2022-10-08T04:11:18.356Z,5.18
2022-10-08T04:13:46.029Z,5.03
2022-10-08T04:16:15.765Z,4.82
2022-10-08T04:18:44.079Z,5.10
2022-10-08T04:21:14.204Z,5.28
2022-10-08T04:23:45.302Z,4.80
2022-10-08T04:26:14.434Z,4.43
2022-10-08T04:28:45.167Z,5.32
2022-10-08T04:31:20.005Z,4.78
2022-10-08T04:33:50.820Z,4.75
2022-10-08T04:36:20.627Z,4.38
2022-10-08T04:38:50.803Z,3.83
2022-10-08T04:41:23.926Z,4.28
2022-10-08T04:43:55.848Z,4.07
2022-10-08T04:46:23.266Z,3.40
2022-10-08T04:48:53.538Z,3.78
2022-10-08T04:51:26.576Z,3.75
2022-10-08T04:53:55.821Z,4.15
2022-10-08T04:56:27.580Z,3.72
2022-10-08T04:58:55.428Z,3.90
2022-10-08T05:01:23.529Z,3.72
2022-10-08T05:03:53.892Z,3.95
2022-10-08T05:06:30.158Z,3.97
2022-10-08T05:08:59.279Z,4.22
2022-10-08T05:11:27.816Z,4.07
2022-10-08T05:13:58.768Z,3.47
2022-10-08T05:16:26.731Z,4.25
2022-10-08T05:18:56.303Z,3.75
2022-10-08T05:21:27.063Z,4.03
2022-10-08T05:24:00.104Z,4.25
2022-10-08T05:29:23.991Z,4.03
2022-10-08T05:31:56.904Z,4.65
2022-10-08T05:34:28.515Z,4.20
2022-10-08T05:37:01.100Z,4.13
2022-10-08T05:39:28.367Z,4.00
2022-10-08T05:42:05.989Z,4.65
2022-10-08T05:44:39.858Z,4.50
2022-10-08T05:47:20.128Z,4.57
2022-10-08T05:49:54.087Z,4.43
2022-10-08T05:52:38.764Z,3.88
2022-10-08T05:55:23.138Z,4.10
2022-10-08T05:57:58.547Z,4.18
2022-10-08T06:00:32.962Z,3.40
2022-10-08T06:03:05.680Z,3.95
2022-10-08T06:05:47.095Z,3.92
2022-10-08T06:08:21.244Z,3.90
2022-10-08T06:10:55.707Z,4.07
2022-10-08T06:13:37.531Z,3.35
2022-10-08T06:16:15.479Z,3.22
2022-10-08T06:19:05.769Z,3.55
2022-10-08T06:21:48.327Z,3.25
2022-10-08T06:24:32.266Z,3.65
2022-10-08T06:27:10.043Z,3.78
2022-10-08T06:29:48.739Z,4.25
2022-10-08T06:32:24.898Z,3.38
2022-10-08T06:35:01.617Z,3.50
2022-10-08T06:37:40.840Z,3.63
2022-10-08T06:40:20.803Z,3.70
2022-10-08T06:43:17.267Z,3.53
2022-10-08T06:45:56.568Z,3.95
2022-10-08T06:48:36.428Z,3.30
2022-10-08T06:51:16.573Z,3.63
2022-10-08T06:54:07.994Z,3.60
2022-10-08T06:56:38.078Z,3.58
2022-10-08T06:59:06.630Z,3.53
2022-10-08T07:04:44.063Z,3.33
2022-10-08T07:07:37.507Z,3.40
2022-10-08T07:10:37.918Z,3.58
2022-10-08T07:13:07.151Z,3.75
2022-10-08T07:15:50.225Z,3.90
2022-10-08T07:18:26.845Z,3.50
2022-10-08T07:20:59.552Z,3.33
2022-10-08T07:23:29.530Z,3.35
2022-10-08T07:26:01.958Z,5.63
2022-10-08T07:28:31.282Z,4.30
2022-10-08T07:31:03.565Z,3.92
2022-10-08T07:33:30.716Z,3.72
2022-10-08T07:36:11.294Z,3.67
2022-10-08T07:38:46.854Z,3.97
2022-10-08T07:41:17.832Z,3.58
2022-10-08T07:43:46.048Z,3.83
2022-10-08T07:46:14.682Z,4.25
2022-10-08T07:48:44.491Z,3.90
2022-10-08T07:51:27.859Z,3.90
2022-10-08T07:54:03.005Z,4.70
2022-10-08T07:56:39.122Z,3.40
2022-10-08T07:59:07.140Z,3.75
2022-10-08T08:01:34.836Z,3.17
2022-10-08T08:04:10.851Z,3.05
2022-10-08T08:06:44.171Z,4.78
2022-10-08T08:09:12.303Z,3.97
2022-10-08T08:11:40.367Z,3.80
2022-10-08T08:14:08.367Z,3.83
2022-10-08T08:16:37.562Z,4.05
2022-10-08T08:19:06.488Z,4.15
2022-10-08T08:21:38.397Z,4.80
2022-10-08T08:24:25.900Z,4.80
2022-10-08T08:26:57.826Z,4.10
2022-10-08T08:29:31.189Z,4.25
2022-10-08T08:34:38.996Z,4.45
2022-10-08T08:37:19.998Z,5.15
2022-10-08T08:39:54.954Z,4.32
2022-10-08T08:42:51.893Z,4.55
2022-10-08T08:45:46.865Z,4.20
2022-10-08T08:48:27.604Z,4.28
2022-10-08T08:51:08.397Z,3.90
2022-10-08T08:53:39.386Z,4.20
2022-10-08T08:56:19.008Z,7.30
2022-10-08T08:59:30.492Z,4.53
2022-10-08T09:02:01.930Z,4.20
2022-10-08T09:05:49.671Z,4.18
2022-10-08T09:08:37.656Z,4.20
2022-10-08T09:11:19.779Z,3.78
2022-10-08T09:14:15.025Z,3.08
2022-10-08T09:17:26.904Z,3.50
2022-10-08T09:20:27.475Z,3.78
2022-10-08T09:23:17.991Z,3.72
2022-10-08T09:26:18.968Z,4.65
2022-10-08T09:29:06.469Z,3.08
2022-10-08T09:32:34.822Z,3.05
2022-10-08T09:35:53.098Z,2.33
2022-10-08T09:38:52.426Z,2.08
2022-10-08T09:41:43.677Z,1.95
2022-10-08T09:47:16.497Z,2.92
2022-10-08T09:50:41.723Z,3.08
2022-10-08T09:53:24.614Z,2.60
2022-10-08T09:56:14.049Z,2.83
2022-10-08T09:58:55.345Z,2.72
2022-10-08T10:01:27.536Z,3.05
2022-10-08T10:04:11.810Z,2.60
2022-10-08T10:06:55.069Z,2.53
2022-10-08T10:09:50.524Z,2.70
2022-10-08T10:12:24.861Z,3.47
2022-10-08T10:15:06.527Z,3.53
2022-10-08T10:18:01.595Z,1.95
2022-10-08T10:20:54.361Z,2.40
2022-10-08T10:24:03.197Z,2.30
2022-10-08T10:26:53.536Z,2.58
2022-10-08T10:29:39.034Z,4.05
2022-10-08T10:32:31.007Z,4.20
2022-10-08T10:35:33.204Z,3.50
2022-10-08T10:38:21.871Z,4.00
2022-10-08T10:41:25.249Z,3.15
2022-10-08T10:44:04.230Z,2.80
2022-10-08T10:46:44.602Z,2.35
2022-10-08T10:49:23.374Z,3.05
2022-10-08T10:52:34.455Z,2.92
2022-10-08T10:56:06.987Z,4.68
2022-10-08T10:59:08.178Z,4.70
2022-10-08T11:01:53.528Z,3.83
2022-10-08T11:08:24.705Z,2.17
2022-10-08T11:11:37.432Z,2.55
2022-10-08T11:14:34.587Z,2.60
2022-10-08T11:17:51.111Z,2.38
2022-10-08T11:21:11.185Z,5.00
2022-10-08T11:24:19.367Z,3.85
2022-10-08T11:27:42.635Z,3.50
2022-10-08T11:30:45.175Z,5.50
2022-10-08T11:33:19.105Z,3.35
2022-10-08T11:36:16.347Z,2.80
2022-10-08T11:42:48.377Z,4.05
2022-10-08T11:45:40.444Z,2.42
2022-10-08T11:51:55.138Z,2.85
2022-10-08T11:54:35.576Z,2.67
2022-10-08T12:01:01.780Z,3.60
2022-10-08T12:04:13.811Z,2.47
2022-10-08T12:06:41.086Z,3.90
2022-10-08T12:09:25.117Z,5.63
2022-10-08T12:11:55.831Z,3.45
2022-10-08T12:14:24.594Z,2.92
2022-10-08T12:17:02.607Z,2.97
2022-10-08T12:19:33.295Z,2.45
2022-10-08T12:22:19.400Z,3.58
2022-10-08T12:25:04.130Z,3.08
2022-10-08T12:27:40.532Z,3.28
2022-10-08T12:31:09.773Z,5.40
2022-10-08T12:33:43.951Z,3.40
2022-10-08T12:36:32.645Z,3.10
2022-10-08T12:39:43.008Z,2.28
2022-10-08T12:42:19.869Z,2.70
2022-10-08T12:45:12.411Z,2.35
2022-10-08T12:48:06.083Z,2.00
2022-10-08T12:50:36.594Z,2.10
2022-10-08T12:53:19.308Z,2.58
2022-10-08T12:55:54.252Z,3.05
2022-10-08T12:58:42.186Z,2.22
2022-10-08T13:01:38.709Z,2.35
2022-10-08T13:04:38.443Z,2.10
2022-10-08T13:07:38.727Z,2.35
2022-10-08T13:13:45.475Z,2.17
2022-10-08T13:16:17.260Z,2.17
2022-10-08T13:18:53.483Z,2.47
2022-10-08T13:22:02.116Z,2.08
2022-10-08T13:24:32.505Z,1.90
2022-10-08T13:27:02.171Z,1.88
2022-10-08T13:29:48.230Z,2.40
2022-10-08T13:32:43.037Z,2.60
2022-10-08T13:35:30.749Z,2.25
2022-10-08T13:38:14.942Z,2.03
2022-10-08T13:40:51.234Z,2.55
2022-10-08T13:43:27.203Z,2.70
2022-10-08T13:46:10.617Z,4.13
2022-10-08T13:48:44.934Z,2.60
2022-10-08T13:51:15.339Z,3.28
2022-10-08T13:53:53.604Z,2.35
2022-10-08T13:56:28.822Z,2.60
2022-10-08T13:59:02.306Z,3.00
2022-10-08T14:01:38.370Z,3.25
2022-10-08T14:04:17.895Z,2.35
2022-10-08T14:09:32.481Z,1.92
2022-10-08T14:12:04.702Z,2.53
2022-10-08T14:14:35.636Z,2.93
2022-10-08T14:17:08.883Z,2.00
2022-10-08T14:19:41.918Z,2.50
2022-10-08T14:22:19.590Z,2.38
2022-10-08T14:24:52.017Z,2.70
2022-10-08T14:27:24.476Z,2.55
2022-10-08T14:30:03.318Z,2.22
2022-10-08T14:32:46.717Z,2.42
2022-10-08T14:38:03.192Z,3.17
2022-10-08T14:40:33.409Z,3.92
2022-10-08T14:43:06.223Z,2.55
2022-10-08T14:45:44.257Z,1.88
2022-10-08T14:48:14.414Z,2.20
2022-10-08T14:50:53.060Z,2.10
2022-10-08T14:53:28.717Z,2.42
2022-10-08T14:56:12.537Z,2.53
2022-10-08T14:58:45.828Z,2.30
2022-10-08T15:01:27.681Z,3.47
2022-10-08T15:04:09.975Z,2.58
2022-10-08T15:06:44.709Z,2.33
2022-10-08T15:09:17.080Z,3.10
2022-10-08T15:11:59.386Z,2.67
2022-10-08T15:14:37.071Z,2.80
2022-10-08T15:17:13.266Z,3.47
2022-10-08T15:19:40.517Z,2.72
2022-10-08T15:22:18.765Z,2.30
2022-10-08T15:25:41.181Z,2.53
2022-10-08T15:41:54.583Z,3.95
2022-10-08T15:47:57.181Z,2.53
2022-10-08T15:53:43.448Z,2.15
2022-10-08T15:59:38.438Z,2.85
2022-10-08T16:02:22.306Z,4.40
2022-10-08T16:04:57.689Z,2.53
2022-10-08T16:10:37.041Z,2.88
2022-10-08T16:13:14.427Z,3.05
2022-10-08T16:15:59.012Z,2.30
2022-10-08T16:18:30.626Z,3.70
2022-10-08T16:21:07.151Z,4.85
2022-10-08T16:23:44.802Z,3.17
2022-10-08T16:26:27.144Z,2.88
2022-10-08T16:29:13.818Z,2.95
2022-10-08T16:32:17.521Z,2.92
2022-10-08T16:34:53.448Z,2.80
2022-10-08T16:37:26.870Z,2.95
2022-10-08T16:40:07.130Z,4.78
2022-10-08T16:45:23.646Z,2.85
2022-10-08T16:47:50.903Z,2.50
2022-10-08T16:50:25.833Z,2.55
2022-10-08T16:52:53.605Z,3.42
2022-10-08T16:55:21.015Z,2.65
2022-10-08T16:57:51.586Z,2.92
2022-10-08T17:00:22.126Z,2.88
2022-10-08T17:02:52.939Z,3.28
2022-10-08T17:05:23.280Z,3.20
2022-10-08T17:07:58.904Z,2.95
2022-10-08T17:10:39.018Z,2.30
2022-10-08T17:13:06.569Z,2.17
2022-10-08T17:15:51.242Z,2.70
2022-10-08T17:21:53.545Z,3.17
2022-10-08T17:24:28.943Z,3.00
2022-10-08T17:27:15.434Z,2.70
2022-10-08T17:29:47.429Z,3.15
2022-10-08T17:32:39.764Z,3.60
2022-10-08T17:35:23.270Z,3.47
2022-10-08T17:37:59.150Z,3.40
2022-10-08T17:40:36.315Z,3.17
2022-10-08T17:43:15.342Z,3.97
2022-10-08T17:45:45.814Z,3.55
2022-10-08T17:48:17.938Z,3.20
2022-10-08T17:50:54.358Z,4.10
2022-10-08T17:56:24.415Z,3.05
2022-10-08T17:59:02.459Z,3.28
2022-10-08T18:04:28.554Z,4.85
2022-10-08T18:07:03.153Z,6.80
2022-10-08T18:09:34.183Z,4.53
2022-10-08T18:12:01.464Z,4.68
2022-10-08T18:14:28.954Z,4.53
2022-10-08T18:17:21.371Z,8.63
2022-10-08T18:20:10.405Z,4.80
2022-10-08T18:22:45.081Z,4.32
2022-10-08T18:25:26.686Z,3.75
2022-10-08T18:28:01.221Z,3.92
2022-10-08T18:30:42.343Z,4.18
2022-10-08T18:33:15.799Z,4.07
2022-10-08T18:35:46.422Z,3.72
2022-10-08T18:38:30.641Z,4.57
2022-10-08T18:41:23.458Z,4.03
2022-10-08T18:44:31.774Z,4.38
2022-10-08T18:47:18.134Z,5.10
2022-10-08T18:49:59.637Z,5.43
2022-10-08T18:52:33.927Z,6.93
2022-10-08T18:55:20.983Z,5.78
2022-10-08T18:58:03.171Z,5.65
2022-10-08T19:03:49.169Z,4.82
2022-10-08T19:06:42.603Z,4.22
2022-10-08T19:09:27.404Z,4.47
2022-10-08T19:15:09.840Z,3.80
2022-10-08T19:17:58.681Z,4.20
2022-10-08T19:20:57.521Z,4.10
2022-10-08T19:23:46.300Z,4.30
2022-10-08T19:27:00.168Z,7.68
2022-10-08T19:29:44.690Z,5.32
2022-10-08T19:35:02.696Z,4.65
2022-10-08T19:37:39.242Z,4.57
2022-10-08T19:40:24.813Z,4.10
2022-10-08T19:43:07.396Z,4.55
2022-10-08T19:45:50.940Z,4.57
2022-10-08T19:48:27.493Z,4.65
2022-10-08T19:51:24.679Z,4.03
2022-10-08T19:54:14.285Z,4.50
2022-10-08T19:57:09.678Z,4.25
2022-10-08T19:59:53.038Z,4.05
2022-10-08T20:02:36.489Z,4.50
2022-10-08T20:05:44.273Z,5.10
2022-10-08T20:08:37.695Z,4.97
2022-10-08T20:11:32.846Z,6.03
2022-10-08T20:14:16.357Z,7.43
2022-10-08T20:20:33.388Z,8.48
2022-10-08T20:23:17.874Z,7.68
2022-10-08T20:26:20.142Z,9.20
2022-10-08T20:29:43.948Z,7.30
2022-10-08T20:32:31.042Z,6.25
2022-10-08T20:35:25.020Z,6.18
2022-10-08T20:38:26.435Z,6.05
2022-10-08T20:41:07.041Z,5.97
2022-10-08T20:43:59.716Z,6.25
2022-10-08T20:47:12.487Z,5.90
2022-10-08T20:50:21.293Z,6.35
2022-10-08T20:52:49.797Z,5.53
2022-10-08T20:55:20.451Z,4.95
2022-10-08T20:57:51.186Z,4.90
2022-10-08T21:00:21.766Z,5.43
2022-10-08T21:02:49.691Z,5.40
2022-10-08T21:05:18.178Z,5.72
2022-10-08T21:07:45.544Z,5.38
2022-10-08T21:10:12.879Z,6.10
2022-10-08T21:12:46.809Z,5.97
2022-10-08T21:15:17.432Z,5.80
2022-10-08T21:17:48.225Z,5.53
2022-10-08T21:20:16.126Z,5.00
2022-10-08T21:22:46.148Z,5.30
2022-10-08T21:25:14.316Z,5.97
2022-10-08T21:27:43.227Z,6.40
2022-10-08T21:30:17.956Z,5.30
2022-10-08T21:32:51.628Z,5.50
2022-10-08T21:35:18.957Z,5.60
2022-10-08T21:37:46.253Z,5.45
2022-10-08T21:40:14.145Z,6.00
2022-10-08T21:42:42.265Z,5.88
2022-10-08T21:45:13.442Z,6.55
2022-10-08T21:47:46.393Z,5.63
2022-10-08T21:50:17.869Z,6.40
2022-10-08T21:52:57.082Z,6.07
2022-10-08T21:55:24.863Z,6.15
2022-10-08T21:57:59.127Z,5.63
2022-10-08T22:00:38.034Z,5.60
2022-10-08T22:03:14.359Z,5.53
2022-10-08T22:05:56.279Z,5.00
2022-10-08T22:08:32.624Z,5.25
2022-10-08T22:11:07.053Z,5.43
2022-10-08T22:13:36.098Z,5.55
2022-10-08T22:16:19.239Z,6.40
2022-10-08T22:18:46.783Z,5.28
2022-10-08T22:21:21.849Z,5.63
2022-10-08T22:23:50.570Z,5.55
2022-10-08T22:26:25.593Z,5.15
2022-10-08T22:28:52.820Z,5.45
2022-10-08T22:31:20.842Z,5.32
2022-10-08T22:33:49.571Z,4.75
2022-10-08T22:36:24.115Z,6.30
2022-10-08T22:38:52.340Z,5.38
2022-10-08T22:41:26.444Z,5.55
2022-10-08T22:43:54.924Z,5.67
2022-10-08T22:46:31.774Z,5.43
2022-10-08T22:49:00.763Z,5.55
2022-10-08T22:51:28.851Z,5.07
2022-10-08T22:53:56.281Z,5.20
2022-10-08T22:56:26.431Z,5.68
2022-10-08T22:58:53.700Z,5.68
2022-10-08T23:01:26.648Z,5.88
2022-10-08T23:03:54.437Z,5.90
2022-10-08T23:06:27.647Z,6.25
2022-10-08T23:09:01.312Z,5.78
2022-10-08T23:11:30.146Z,6.47
2022-10-08T23:13:58.687Z,6.18
2022-10-08T23:16:28.291Z,6.20
2022-10-08T23:19:10.969Z,6.40
2022-10-08T23:21:41.611Z,7.05
2022-10-08T23:24:11.618Z,6.93
2022-10-08T23:26:39.148Z,6.32
2022-10-08T23:29:06.258Z,6.55
2022-10-08T23:31:36.506Z,7.07
2022-10-08T23:34:05.313Z,7.03
2022-10-08T23:36:40.827Z,7.28
2022-10-08T23:39:12.900Z,6.97
2022-10-08T23:41:42.890Z,6.65
2022-10-08T23:44:11.659Z,6.88
2022-10-08T23:46:38.781Z,6.63
2022-10-08T23:49:08.986Z,7.90
2022-10-08T23:51:36.336Z,7.10
2022-10-08T23:54:03.577Z,7.07
2022-10-08T23:56:31.036Z,7.32
